(844) FLY-METRO info@metroplex.com

OUR AIRCRAFT

Lorem ipsum dolor sit amet, consectetur adipiscing elit. Sed vel erat tempus, suscipit orci ut, tincidunt augue. Donec nibh quam, tristique sed lacinia quis, vulputate et purus. Vivamus sollicitudin pharetra felis eu ultricies. Mauris ac est faucibus, condimentum dui eget, porta libero. Phasellus arcu quam, ultrices eget neque quis, tincidunt egestas augue.

CITATION 1

CITATION II

If we all worked on the assumption that what is accepted as true is really true, there would be little hope of advance. — Orville Wright
Aviation Weather
FORT WORTH, TX
Metar
KFTW 082353Z 17011KT 10SM CLR 19/11 A2977 RMK AO2 SLP079 T01940111 10222 20178 56007

23:53 UTC

Wind: 170° 11kt

Visibility: 10 SM

Sky:

Temp: 19 deg C / 66.2 deg F

Dewpoint: 11 deg C / 51.8 deg F

Pressure: 29.77 inHg

TAF
KFTW 082324Z 0900/0924 18014G24KT P6SM BKN300 FM091000 23014KT P6SM BKN180 FM091600 27014KT P6SM BKN100 FM092000 33015G25KT P6SM BKN060